Time;durP1;ratioP1;P1;durP2;ratioP2;P2;SDS_P1;SDS_P2;PMS_P1;PMS_P2;Temp;Humidity;BMP_temperature;BMP_pressure;BME280_temperature;BME280_humidity;BME280_pressure;Samples;Min_cycle;Max_cycle;Signal;HPM_P1;HPM_P2
2021/12/23 00:01:25;;;;;;;34.47;21.43;;;;;;;-2.07;87.07;101644.91;5027071;28;20029;-63
2021/12/23 00:03:50;;;;;;;36.60;21.50;;;;;;;-2.07;87.49;101644.91;5035866;28;20022;-63
2021/12/23 00:06:16;;;;;;;32.20;20.37;;;;;;;-2.09;87.62;101641.53;5025401;28;20479;-63
2021/12/23 00:08:41;;;;;;;34.00;20.53;;;;;;;-2.09;87.65;101625.94;5025995;28;20084;-64
2021/12/23 00:11:06;;;;;;;37.60;20.33;;;;;;;-2.08;87.18;101626.81;5024780;28;20043;-64
2021/12/23 00:13:34;;;;;;;33.30;20.27;;;;;;;-2.09;87.60;101610.34;5024151;28;20471;-63
2021/12/23 00:23:51;;;;;;;33.80;20.47;;;;;;;-2.16;86.62;101599.34;5026185;28;20037;-64
2021/12/23 00:26:17;;;;;;;38.07;20.83;;;;;;;-2.17;86.64;101596.81;5026672;28;20112;-63
2021/12/23 00:28:42;;;;;;;33.47;20.37;;;;;;;-2.15;86.70;101595.00;5028198;28;20403;-63
2021/12/23 00:31:08;;;;;;;34.47;20.40;;;;;;;-2.17;86.90;101581.22;5025425;28;20032;-63
2021/12/23 00:33:36;;;;;;;32.80;19.53;;;;;;;-2.14;86.70;101568.09;5031151;28;20034;-63
2021/12/23 00:36:03;;;;;;;34.33;20.70;;;;;;;-2.10;87.08;101561.03;5030881;28;20041;-62
2021/12/23 00:38:33;;;;;;;33.27;20.50;;;;;;;-2.10;86.92;101556.69;5031812;28;20489;-63
2021/12/23 00:41:01;;;;;;;34.83;20.13;;;;;;;-2.11;86.51;101565.41;5029563;28;20025;-63
2021/12/23 00:43:26;;;;;;;36.63;20.40;;;;;;;-2.08;87.10;101564.44;5031700;28;20471;-63
2021/12/23 00:45:52;;;;;;;33.97;19.80;;;;;;;-2.08;86.90;101570.47;5031113;28;20367;-63
2021/12/23 00:48:18;;;;;;;34.80;19.77;;;;;;;-2.06;86.60;101558.22;5024959;28;20017;-63
2021/12/23 00:50:44;;;;;;;34.30;20.37;;;;;;;-2.05;86.30;101565.16;5028863;28;20151;-62
2021/12/23 00:53:12;;;;;;;33.70;20.07;;;;;;;-2.07;86.66;101540.13;5029809;28;20043;-63
2021/12/23 00:55:38;;;;;;;32.57;20.10;;;;;;;-2.02;86.32;101546.00;5029765;28;20033;-63
2021/12/23 00:58:04;;;;;;;33.53;20.00;;;;;;;-2.03;86.48;101550.31;5028389;28;20026;-63
2021/12/23 01:00:30;;;;;;;34.90;19.93;;;;;;;-2.04;86.60;101556.44;5028970;28;20071;-62
2021/12/23 01:02:58;;;;;;;35.17;20.53;;;;;;;-2.03;86.49;101563.31;5029746;28;20035;-63
2021/12/23 01:05:24;;;;;;;32.83;19.63;;;;;;;-2.01;86.02;101565.00;5030058;28;20490;-62
2021/12/23 01:07:49;;;;;;;35.47;20.67;;;;;;;-2.00;85.66;101579.69;5029128;28;20116;-63
2021/12/23 01:10:15;;;;;;;35.17;20.97;;;;;;;-2.01;86.26;101571.06;5030562;28;20528;-63
2021/12/23 01:12:50;;;;;;;34.37;19.97;;;;;;;-2.03;85.57;101563.31;5028853;28;20060;-62
2021/12/23 01:20:20;;;;;;;33.10;19.73;;;;;;;-2.03;85.46;101562.47;5029056;28;20045;-62
2021/12/23 01:22:46;;;;;;;35.77;20.07;;;;;;;-2.01;85.49;101549.41;5029871;28;20040;-63
2021/12/23 01:25:11;;;;;;;37.07;20.37;;;;;;;-1.98;85.51;101546.72;5029392;28;20445;-63
2021/12/23 01:27:36;;;;;;;32.90;20.17;;;;;;;-1.97;85.36;101551.00;5030236;28;20071;-63
2021/12/23 01:30:03;;;;;;;32.80;20.27;;;;;;;-1.96;85.50;101547.47;5027612;28;20486;-63
2021/12/23 01:32:28;;;;;;;33.47;20.33;;;;;;;-1.97;85.21;101546.63;5028477;28;20394;-62
2021/12/23 01:34:53;;;;;;;31.77;19.67;;;;;;;-1.95;85.16;101533.56;5030157;28;20033;-62
2021/12/23 01:37:19;;;;;;;34.50;19.80;;;;;;;-2.00;84.71;101525.09;5028337;28;20041;-63
2021/12/23 01:39:44;;;;;;;33.67;19.80;;;;;;;-1.98;84.84;101523.31;5028721;28;20033;-63
2021/12/23 01:42:09;;;;;;;35.53;20.97;;;;;;;-1.99;84.76;101527.66;5029362;28;20080;-63
2021/12/23 01:44:35;;;;;;;35.43;20.80;;;;;;;-1.99;84.93;101519.03;5029569;28;20034;-63
2021/12/23 01:47:00;;;;;;;33.10;20.13;;;;;;;-2.03;84.27;101521.72;5029794;28;20124;-61
2021/12/23 01:49:25;;;;;;;33.20;20.00;;;;;;;-2.04;85.12;101514.84;5029575;28;20095;-63
2021/12/23 01:51:50;;;;;;;33.70;20.97;;;;;;;-2.05;84.65;101518.38;5029430;28;20034;-61
2021/12/23 01:54:16;;;;;;;32.47;19.87;;;;;;;-2.05;84.45;101518.38;5028760;28;20056;-63
2021/12/23 01:56:42;;;;;;;33.70;20.07;;;;;;;-2.07;84.29;101509.75;5029726;28;20035;-62
2021/12/23 01:59:07;;;;;;;32.03;19.80;;;;;;;-2.06;84.94;101503.66;5029171;28;20395;-63
2021/12/23 02:01:32;;;;;;;33.57;20.50;;;;;;;-2.06;84.92;101498.44;5028678;28;20033;-62
2021/12/23 02:03:57;;;;;;;34.37;20.37;;;;;;;-2.03;85.04;101506.13;5030017;28;20047;-63
2021/12/23 02:06:23;;;;;;;33.37;19.77;;;;;;;-2.03;84.23;101495.75;5029249;28;20411;-62
2021/12/23 02:08:48;;;;;;;35.63;21.03;;;;;;;-2.05;84.24;101489.78;5029416;28;20137;-63
2021/12/23 02:11:14;;;;;;;32.37;20.30;;;;;;;-2.06;84.74;101480.25;5030230;28;20096;-63
2021/12/23 02:13:39;;;;;;;33.27;19.80;;;;;;;-2.05;84.14;101481.13;5030442;28;20080;-63
2021/12/23 02:16:06;;;;;;;33.47;20.10;;;;;;;-2.06;84.36;101480.25;5029298;28;20455;-62
2021/12/23 02:18:32;;;;;;;34.97;20.07;;;;;;;-2.06;84.16;101480.25;5029548;28;20570;-63
2021/12/23 02:20:58;;;;;;;34.00;20.47;;;;;;;-2.07;84.36;101472.53;5031044;28;20467;-63
2021/12/23 02:23:25;;;;;;;35.33;19.97;;;;;;;-2.10;83.96;101460.53;5029334;28;20029;-62
2021/12/23 02:25:51;;;;;;;32.47;19.20;;;;;;;-2.08;84.24;101469.09;5029873;28;20128;-63
2021/12/23 02:28:20;;;;;;;36.20;20.07;;;;;;;-2.09;84.20;101485.59;5028475;28;20148;-62
2021/12/23 02:30:51;;;;;;;35.93;20.07;;;;;;;-2.08;84.18;101487.28;5022835;28;20045;-63
2021/12/23 02:33:17;;;;;;;33.67;19.93;;;;;;;-2.09;84.21;101484.75;5030748;28;20061;-63
2021/12/23 02:35:42;;;;;;;34.17;20.07;;;;;;;-2.10;83.97;101481.31;5029552;28;20386;-62
2021/12/23 02:38:08;;;;;;;31.90;19.77;;;;;;;-2.12;84.45;101490.91;5032945;28;20033;-63
2021/12/23 02:40:36;;;;;;;35.33;20.20;;;;;;;-2.16;84.24;101484.16;5033871;28;20021;-63
2021/12/23 02:43:11;;;;;;;31.57;19.70;;;;;;;-2.12;84.17;101490.09;5033956;28;20029;-63
2021/12/23 02:45:37;;;;;;;32.07;20.00;;;;;;;-2.16;84.11;101490.19;5029463;28;20034;-63
2021/12/23 02:48:03;;;;;;;36.43;21.13;;;;;;;-2.15;84.29;101483.25;5033343;28;20456;-62
2021/12/23 02:50:29;;;;;;;35.03;20.50;;;;;;;-2.16;84.50;101495.38;5033907;28;20475;-63
2021/12/23 02:52:54;;;;;;;34.50;20.93;;;;;;;-2.14;84.58;101481.50;5030892;28;20036;-62
2021/12/23 02:55:20;;;;;;;35.17;20.83;;;;;;;-2.14;84.71;101471.94;5033752;28;20026;-63
2021/12/23 02:57:46;;;;;;;35.70;20.70;;;;;;;-2.17;84.96;101451.28;5031188;28;20115;-63
2021/12/23 03:00:12;;;;;;;36.80;22.17;;;;;;;-2.19;84.51;101448.75;5031813;28;20045;-61
2021/12/23 03:02:39;;;;;;;34.17;21.03;;;;;;;-2.21;84.53;101453.16;5031359;28;20136;-63
2021/12/23 03:05:05;;;;;;;35.50;20.77;;;;;;;-2.20;84.48;101462.66;5032787;28;20025;-62
2021/12/23 03:07:31;;;;;;;35.00;21.37;;;;;;;-2.23;84.69;101451.56;5032282;28;20033;-63
2021/12/23 03:09:56;;;;;;;36.53;21.70;;;;;;;-2.25;84.69;101435.16;5031631;28;20060;-63
2021/12/23 03:12:21;;;;;;;38.60;21.40;;;;;;;-2.25;85.15;101446.41;5033657;28;20088;-63
2021/12/23 03:14:47;;;;;;;35.80;21.87;;;;;;;-2.25;84.77;101448.16;5030814;28;20038;-62
2021/12/23 03:17:12;;;;;;;35.47;21.03;;;;;;;-2.25;85.01;101442.94;5032417;28;20040;-63
2021/12/23 03:19:37;;;;;;;35.50;21.10;;;;;;;-2.25;84.61;101429.97;5033263;28;20174;-63
2021/12/23 03:22:03;;;;;;;35.93;21.80;;;;;;;-2.30;84.95;101430.16;5031986;28;20037;-62
2021/12/23 03:24:28;;;;;;;36.57;20.93;;;;;;;-2.31;85.03;101428.47;5032884;28;20048;-62
2021/12/23 03:26:53;;;;;;;35.53;21.50;;;;;;;-2.32;84.92;101426.78;5032179;28;20056;-63
2021/12/23 03:29:19;;;;;;;35.00;21.57;;;;;;;-2.35;84.79;101409.56;5029034;28;20068;-62
2021/12/23 03:31:44;;;;;;;36.83;21.17;;;;;;;-2.36;85.30;101392.28;5029062;28;20025;-62
2021/12/23 03:34:09;;;;;;;36.93;22.20;;;;;;;-2.37;85.41;101385.41;5032277;28;20033;-63
2021/12/23 03:36:35;;;;;;;36.87;22.33;;;;;;;-2.39;85.17;101378.56;5031113;28;20037;-63
2021/12/23 03:39:01;;;;;;;36.93;21.47;;;;;;;-2.38;85.26;101401.88;5031683;28;20030;-62
2021/12/23 03:41:26;;;;;;;38.13;22.13;;;;;;;-2.38;85.43;101388.91;5027823;28;20103;-61
2021/12/23 03:43:51;;;;;;;38.60;22.67;;;;;;;-2.35;85.62;101378.41;5028069;28;20030;-62
2021/12/23 03:46:17;;;;;;;39.10;23.13;;;;;;;-2.36;85.73;101379.28;5029598;28;20455;-62
2021/12/23 03:48:42;;;;;;;38.27;22.80;;;;;;;-2.37;85.58;101372.41;5029761;28;20037;-63
2021/12/23 03:51:07;;;;;;;39.13;23.20;;;;;;;-2.34;85.46;101377.47;5031295;28;20037;-63
2021/12/23 03:53:33;;;;;;;40.00;23.67;;;;;;;-2.32;85.76;101364.44;5029775;28;20029;-63
2021/12/23 03:55:58;;;;;;;38.73;22.93;;;;;;;-2.32;86.02;101338.47;5032501;28;20056;-63
2021/12/23 03:58:23;;;;;;;41.23;24.07;;;;;;;-2.33;85.70;101336.75;5031532;28;20041;-62
2021/12/23 04:00:50;;;;;;;41.87;24.23;;;;;;;-2.32;85.81;101333.25;5029891;28;20060;-63
2021/12/23 04:03:16;;;;;;;41.07;24.20;;;;;;;-2.34;85.55;101335.91;5031058;28;20029;-62
2021/12/23 04:05:41;;;;;;;38.27;22.83;;;;;;;-2.33;86.01;101340.19;5030794;28;20037;-63
2021/12/23 04:08:07;;;;;;;43.60;24.40;;;;;;;-2.32;86.12;101349.69;5031859;28;20053;-63
2021/12/23 04:10:33;;;;;;;40.70;23.57;;;;;;;-2.30;85.87;101347.88;5029402;28;20037;-63
2021/12/23 04:12:59;;;;;;;43.07;25.23;;;;;;;-2.25;86.14;101349.41;5030915;28;20548;-62
2021/12/23 04:15:24;;;;;;;41.23;25.23;;;;;;;-2.22;85.77;101328.50;5031667;28;20033;-63
2021/12/23 04:17:50;;;;;;;40.90;24.60;;;;;;;-2.21;86.01;101325.00;5031763;28;20406;-62
2021/12/23 04:20:19;;;;;;;40.33;24.60;;;;;;;-2.21;86.03;101319.81;5032081;28;20395;-63
2021/12/23 04:22:46;;;;;;;40.03;24.53;;;;;;;-2.26;86.01;101317.41;5031493;28;20071;-63
2021/12/23 04:25:14;;;;;;;41.23;24.60;;;;;;;-2.20;85.61;101329.28;5031455;28;20037;-63
2021/12/23 04:27:41;;;;;;;40.03;24.30;;;;;;;-2.18;85.84;101328.31;5029587;28;20040;-63
2021/12/23 04:30:07;;;;;;;41.17;24.70;;;;;;;-2.19;85.72;101328.38;5031401;28;20493;-63
2021/12/23 04:32:33;;;;;;;42.97;25.13;;;;;;;-2.17;85.72;101339.56;5031444;28;20175;-63
2021/12/23 04:34:58;;;;;;;42.50;25.37;;;;;;;-2.20;85.49;101327.53;5032129;28;20604;-63
2021/12/23 04:37:23;;;;;;;44.87;26.13;;;;;;;-2.18;85.83;101314.47;5031663;28;20521;-63
2021/12/23 04:39:48;;;;;;;44.30;26.60;;;;;;;-2.18;85.82;101298.88;5030526;28;20041;-63
2021/12/23 04:42:14;;;;;;;43.27;25.20;;;;;;;-2.20;85.34;101305.91;5030818;28;20037;-63
2021/12/23 04:44:39;;;;;;;44.63;26.53;;;;;;;-2.19;85.69;101312.78;5028403;28;20471;-63
2021/12/23 04:47:04;;;;;;;41.13;25.87;;;;;;;-2.20;85.79;101285.09;5031413;28;20034;-63
2021/12/23 04:49:30;;;;;;;46.73;27.10;;;;;;;-2.21;85.44;101278.22;5031583;28;20037;-63
2021/12/23 04:51:55;;;;;;;43.57;26.27;;;;;;;-2.21;85.74;101304.22;5029968;28;20498;-63
2021/12/23 04:54:20;;;;;;;45.87;26.13;;;;;;;-2.21;85.61;101296.41;5029096;28;20040;-63
2021/12/23 04:56:45;;;;;;;44.77;26.43;;;;;;;-2.21;85.83;101286.84;5029523;28;20488;-63
2021/12/23 04:59:11;;;;;;;44.80;27.20;;;;;;;-2.19;86.12;101276.41;5030789;28;20123;-63
2021/12/23 05:01:36;;;;;;;45.17;27.07;;;;;;;-2.18;85.77;101272.88;5025089;28;20030;-63
2021/12/23 05:04:01;;;;;;;53.67;28.77;;;;;;;-2.21;85.76;101267.84;5026931;28;20048;-63
2021/12/23 05:06:27;;;;;;;46.57;27.80;;;;;;;-2.21;86.30;101273.03;5029910;28;20368;-62
2021/12/23 05:08:53;;;;;;;49.00;27.73;;;;;;;-2.23;85.98;101264.47;5029046;28;20041;-63
2021/12/23 05:11:18;;;;;;;46.03;26.77;;;;;;;-2.21;86.01;101262.63;5027831;28;20116;-62
2021/12/23 05:13:45;;;;;;;46.40;27.23;;;;;;;-2.19;86.34;101263.41;5029545;28;20029;-63
2021/12/23 05:16:10;;;;;;;47.23;27.73;;;;;;;-2.20;85.94;101261.72;5030693;28;20223;-63
2021/12/23 05:18:35;;;;;;;49.27;28.07;;;;;;;-2.18;86.46;101272.88;5029297;28;20052;-63
2021/12/23 05:21:02;;;;;;;50.63;28.87;;;;;;;-2.15;86.32;101262.38;5030165;28;20109;-63
2021/12/23 05:23:28;;;;;;;47.47;29.53;;;;;;;-2.11;85.78;101257.88;5030222;28;20032;-62
2021/12/23 05:25:54;;;;;;;50.13;29.37;;;;;;;-2.13;85.90;101260.53;5026614;28;20037;-62
2021/12/23 05:28:19;;;;;;;47.90;28.53;;;;;;;-2.12;85.96;101257.00;5029692;28;20037;-63
2021/12/23 05:30:44;;;;;;;49.53;29.40;;;;;;;-2.09;86.24;101262.09;5028041;28;20022;-63
2021/12/23 05:33:10;;;;;;;48.30;29.47;;;;;;;-2.09;86.22;101251.69;5028947;28;20028;-63
2021/12/23 05:35:35;;;;;;;49.63;29.73;;;;;;;-2.08;85.62;101248.19;5029713;28;20031;-63
2021/12/23 05:38:00;;;;;;;49.07;28.60;;;;;;;-2.06;86.15;101256.75;5027145;28;20038;-63
2021/12/23 05:40:28;;;;;;;51.83;31.00;;;;;;;-2.06;86.07;101256.75;5028955;28;20438;-62
2021/12/23 05:42:55;;;;;;;49.23;29.53;;;;;;;-2.04;86.25;101241.94;5026388;28;20459;-62
2021/12/23 05:45:20;;;;;;;53.67;31.93;;;;;;;-2.04;86.03;101238.47;5030108;28;20540;-63
2021/12/23 05:47:47;;;;;;;53.77;31.60;;;;;;;-2.01;86.00;101227.97;5029257;28;20399;-63
2021/12/23 05:50:14;;;;;;;50.47;30.43;;;;;;;-2.03;85.88;101230.63;5030129;28;20035;-62
2021/12/23 05:52:39;;;;;;;49.87;30.53;;;;;;;-2.01;85.46;101232.31;5028592;28;20029;-63
2021/12/23 05:55:06;;;;;;;54.57;31.40;;;;;;;-2.01;86.05;101233.16;5029737;28;20402;-63
2021/12/23 05:57:32;;;;;;;54.50;31.07;;;;;;;-1.99;86.03;101240.91;5028728;28;20041;-62
2021/12/23 05:59:57;;;;;;;55.37;32.07;;;;;;;-2.01;85.96;101232.31;5027154;28;20045;-63
2021/12/23 06:02:23;;;;;;;54.33;32.73;;;;;;;-1.99;86.13;101226.13;5029454;28;20045;-63
2021/12/23 06:04:48;;;;;;;55.80;31.40;;;;;;;-1.97;86.01;101218.25;5028145;28;20033;-63
2021/12/23 06:07:14;;;;;;;59.23;33.00;;;;;;;-1.95;85.62;101238.06;5028465;28;20170;-63
2021/12/23 06:09:39;;;;;;;57.00;32.33;;;;;;;-1.93;85.68;101251.84;5028168;28;20048;-62
2021/12/23 06:12:05;;;;;;;53.17;31.33;;;;;;;-1.92;85.68;101242.28;5031627;28;20025;-63
2021/12/23 06:14:30;;;;;;;55.83;31.40;;;;;;;-1.92;85.59;101239.69;5034048;28;20418;-63
2021/12/23 06:16:56;;;;;;;55.67;31.70;;;;;;;-1.91;85.65;101233.59;5034802;28;20052;-62
2021/12/23 06:19:22;;;;;;;53.93;31.07;;;;;;;-1.91;85.66;101228.38;5036023;28;20046;-63
2021/12/23 06:21:48;;;;;;;49.83;29.83;;;;;;;-1.91;85.97;101212.78;5031943;28;20044;-62
2021/12/23 06:24:13;;;;;;;52.10;30.13;;;;;;;-1.90;85.65;101214.47;5035912;28;20402;-63
2021/12/23 06:26:38;;;;;;;54.33;30.53;;;;;;;-1.90;85.70;101204.06;5036292;28;20025;-63
2021/12/23 06:29:04;;;;;;;54.53;31.40;;;;;;;-1.90;85.54;101209.25;5035496;28;20077;-63
2021/12/23 06:31:29;;;;;;;54.07;31.10;;;;;;;-1.90;85.76;101209.25;5032045;28;20029;-62
2021/12/23 06:33:54;;;;;;;51.23;30.60;;;;;;;-1.90;85.90;101204.06;5036031;28;20557;-62
2021/12/23 06:36:20;;;;;;;49.90;29.40;;;;;;;-1.91;85.47;101194.59;5035778;28;20084;-63
2021/12/23 06:38:46;;;;;;;52.27;30.23;;;;;;;-1.93;85.63;101188.63;5034022;28;20036;-63
2021/12/23 06:41:12;;;;;;;53.63;30.13;;;;;;;-1.94;85.74;101192.13;5033342;28;20037;-63
2021/12/23 06:43:37;;;;;;;56.87;30.37;;;;;;;-1.94;86.35;101184.31;5031307;28;20029;-62
2021/12/23 06:46:03;;;;;;;53.43;30.87;;;;;;;-1.94;86.35;101172.19;5031143;28;20471;-63
2021/12/23 06:48:30;;;;;;;52.90;30.43;;;;;;;-1.93;86.26;101178.22;5029838;28;20068;-61
2021/12/23 06:50:56;;;;;;;54.70;29.10;;;;;;;-1.94;86.28;101187.78;5030320;28;20052;-63
2021/12/23 06:53:23;;;;;;;50.57;29.30;;;;;;;-1.94;86.42;101179.13;5032351;28;20025;-62
2021/12/23 06:55:50;;;;;;;53.63;30.43;;;;;;;-1.93;86.20;101184.25;5034117;28;20051;-61
2021/12/23 06:58:17;;;;;;;52.73;28.83;;;;;;;-1.91;86.49;101181.59;5033676;28;20334;-62
2021/12/23 07:00:42;;;;;;;50.13;28.70;;;;;;;-1.87;86.52;101188.34;5034727;28;20099;-62
2021/12/23 07:03:08;;;;;;;52.27;30.33;;;;;;;-1.87;86.43;101170.13;5034127;28;20041;-61
2021/12/23 07:05:33;;;;;;;51.97;29.00;;;;;;;-1.84;85.94;101177.78;5036161;28;20035;-61
2021/12/23 07:08:08;;;;;;;53.87;27.77;;;;;;;-1.82;86.32;101186.34;5034110;28;20043;-60
2021/12/23 07:10:34;;;;;;;54.83;29.47;;;;;;;-1.80;86.40;101187.13;5027265;28;20041;-60
2021/12/23 07:13:00;;;;;;;52.33;28.30;;;;;;;-1.77;86.12;101188.75;5033398;28;20112;-60
2021/12/23 07:15:26;;;;;;;51.00;27.87;;;;;;;-1.77;86.24;101179.16;5034357;28;20383;-60
2021/12/23 07:17:53;;;;;;;50.83;28.37;;;;;;;-1.74;86.25;101182.56;5032961;28;20076;-60
2021/12/23 07:20:19;;;;;;;50.27;28.30;;;;;;;-1.73;86.18;101169.47;5035165;28;20401;-60
2021/12/23 07:22:45;;;;;;;50.67;27.47;;;;;;;-1.74;86.25;101182.56;5031036;28;20030;-60
2021/12/23 07:25:12;;;;;;;53.70;27.73;;;;;;;-1.72;86.40;101180.72;5032115;28;20107;-60
2021/12/23 07:27:38;;;;;;;49.20;27.53;;;;;;;-1.70;86.25;101173.69;5031125;28;20021;-60
2021/12/23 07:30:04;;;;;;;52.63;27.30;;;;;;;-1.66;86.19;101173.47;5030210;28;20091;-62
2021/12/23 07:32:30;;;;;;;48.63;27.73;;;;;;;-1.67;85.93;101168.34;5031120;28;20028;-62
2021/12/23 07:34:55;;;;;;;51.03;27.20;;;;;;;-1.66;85.95;101175.22;5030314;28;20033;-62
2021/12/23 07:37:20;;;;;;;50.47;28.10;;;;;;;-1.65;86.16;101180.34;5031586;28;20060;-60
2021/12/23 07:39:47;;;;;;;54.33;27.33;;;;;;;-1.65;85.93;101189.91;5030735;28;20021;-60
2021/12/23 07:42:15;;;;;;;52.60;27.60;;;;;;;-1.63;86.00;101186.31;5028384;28;20108;-60
2021/12/23 07:44:41;;;;;;;52.80;28.53;;;;;;;-1.62;86.29;101185.41;5032530;28;20055;-59
2021/12/23 07:47:08;;;;;;;52.40;27.57;;;;;;;-1.63;85.92;101182.88;5030524;28;20037;-63
2021/12/23 07:49:33;;;;;;;51.33;27.77;;;;;;;-1.59;85.84;101188.78;5028129;28;20025;-63
2021/12/23 07:51:58;;;;;;;52.53;28.90;;;;;;;-1.62;86.15;101194.97;5027844;28;20051;-63
2021/12/23 07:54:24;;;;;;;53.30;28.43;;;;;;;-1.59;86.49;101187.00;5031350;28;20406;-62
2021/12/23 07:56:49;;;;;;;47.70;27.07;;;;;;;-1.58;86.50;101185.25;5030656;28;20148;-63
2021/12/23 07:59:14;;;;;;;49.33;27.80;;;;;;;-1.56;86.44;101170.41;5029787;28;20088;-63
2021/12/23 08:01:40;;;;;;;50.97;26.60;;;;;;;-1.55;86.60;101178.16;5028907;28;20518;-63
2021/12/23 08:04:05;;;;;;;49.33;27.00;;;;;;;-1.52;85.93;101175.38;5028140;28;20029;-63
2021/12/23 08:06:31;;;;;;;49.97;27.30;;;;;;;-1.52;86.01;101167.59;5028545;28;20040;-59
2021/12/23 08:08:56;;;;;;;50.00;27.60;;;;;;;-1.49;86.19;101167.44;5028587;28;20050;-59
2021/12/23 08:11:21;;;;;;;49.03;26.80;;;;;;;-1.47;86.36;101163.91;5026153;28;20045;-63
2021/12/23 08:13:47;;;;;;;49.07;27.57;;;;;;;-1.46;86.47;101166.47;5027642;28;20029;-63
2021/12/23 08:16:12;;;;;;;49.80;27.10;;;;;;;-1.43;86.50;101166.28;5027888;28;20041;-63
2021/12/23 08:18:38;;;;;;;51.37;27.73;;;;;;;-1.41;86.31;101174.03;5021458;28;20066;-63
2021/12/23 08:21:03;;;;;;;51.37;28.60;;;;;;;-1.39;86.71;101167.84;5021303;28;20029;-62
2021/12/23 08:23:29;;;;;;;49.57;27.37;;;;;;;-1.40;86.36;101171.34;5027894;28;20029;-64
2021/12/23 08:25:55;;;;;;;50.57;27.50;;;;;;;-1.40;86.21;101165.31;5030520;28;20045;-62
2021/12/23 08:28:21;;;;;;;48.70;27.27;;;;;;;-1.41;86.10;101153.22;5029563;28;20033;-63
2021/12/23 08:30:47;;;;;;;49.80;27.23;;;;;;;-1.40;86.17;101149.69;5025949;28;20190;-63
2021/12/23 08:33:12;;;;;;;50.10;27.97;;;;;;;-1.40;86.44;101150.53;5025863;28;20056;-63
2021/12/23 08:35:37;;;;;;;50.20;28.07;;;;;;;-1.39;86.71;101140.97;5027743;28;20087;-63
2021/12/23 08:38:05;;;;;;;49.97;28.37;;;;;;;-1.36;86.65;101146.88;5021757;28;20025;-62
2021/12/23 08:40:31;;;;;;;50.53;27.83;;;;;;;-1.31;86.69;101137.97;5020249;28;20710;-62
2021/12/23 08:42:57;;;;;;;55.13;30.23;;;;;;;-1.29;86.56;101134.38;5024944;28;20052;-63
2021/12/23 08:45:25;;;;;;;52.13;29.60;;;;;;;-1.30;86.35;101124.91;5020030;28;20131;-63
2021/12/23 08:47:51;;;;;;;53.20;28.60;;;;;;;-1.26;86.21;101131.66;5020153;28;20033;-63
2021/12/23 08:50:18;;;;;;;51.37;29.50;;;;;;;-1.26;86.83;101121.25;5029850;28;20036;-63
2021/12/23 08:52:45;;;;;;;53.83;30.40;;;;;;;-1.21;86.61;101113.19;5025366;28;20017;-59
2021/12/23 08:55:10;;;;;;;62.23;34.27;;;;;;;-1.17;86.59;101124.28;5029564;28;20033;-59
2021/12/23 08:57:36;;;;;;;59.87;34.20;;;;;;;-1.16;86.47;101115.56;5030577;28;20393;-60
2021/12/23 09:00:05;;;;;;;54.40;30.43;;;;;;;-1.20;86.76;101114.88;5029301;28;20038;-59
2021/12/23 09:02:30;;;;;;;51.90;29.47;;;;;;;-1.13;86.71;101118.84;5025002;28;20076;-60
2021/12/23 09:04:55;;;;;;;49.03;27.07;;;;;;;-1.10;86.73;101117.84;5029285;28;20049;-59
2021/12/23 09:07:21;;;;;;;54.03;27.60;;;;;;;-1.06;86.23;101114.16;5029182;28;20049;-58
2021/12/23 09:09:50;;;;;;;54.07;30.70;;;;;;;-1.03;86.32;101111.38;5026106;28;20046;-59
2021/12/23 09:12:16;;;;;;;52.67;27.63;;;;;;;-1.00;85.82;101106.03;5026293;28;20387;-59
2021/12/23 09:14:41;;;;;;;50.73;28.50;;;;;;;-0.96;86.52;101112.78;5023719;28;20033;-62
2021/12/23 09:17:06;;;;;;;51.93;27.57;;;;;;;-0.90;86.24;101105.56;5025297;28;20045;-63
2021/12/23 09:19:31;;;;;;;49.87;28.13;;;;;;;-0.85;86.61;101108.75;5025912;28;20025;-63
2021/12/23 09:21:57;;;;;;;50.63;27.50;;;;;;;-0.82;85.94;101106.00;5024605;28;20029;-64
2021/12/23 09:24:22;;;;;;;52.27;27.23;;;;;;;-0.79;86.45;101103.22;5029899;28;20037;-62
2021/12/23 09:26:55;;;;;;;49.20;27.67;;;;;;;-0.75;85.71;101109.13;5030900;28;20022;-64
2021/12/23 09:34:44;;;;;;;50.20;27.10;;;;;;;-0.68;85.45;101110.50;5027625;28;20068;-64
2021/12/23 09:37:10;;;;;;;50.03;26.70;;;;;;;-0.68;85.25;101100.91;5029541;28;20026;-63
2021/12/23 09:39:35;;;;;;;54.20;28.10;;;;;;;-0.65;85.86;101097.28;5028410;28;20048;-63
2021/12/23 09:42:03;;;;;;;49.13;27.13;;;;;;;-0.64;85.60;101100.75;5026088;28;20033;-63
2021/12/23 09:44:29;;;;;;;50.83;27.53;;;;;;;-0.63;86.10;101092.00;5027804;28;20040;-63
2021/12/23 09:46:57;;;;;;;50.63;28.47;;;;;;;-0.62;86.21;101088.47;5026682;28;20036;-63
2021/12/23 09:49:23;;;;;;;50.27;27.63;;;;;;;-0.59;85.61;101083.09;5029948;28;20025;-63
2021/12/23 09:51:49;;;;;;;48.47;27.23;;;;;;;-0.56;85.65;101082.94;5028388;28;20041;-63
2021/12/23 09:54:17;;;;;;;48.90;26.37;;;;;;;-0.58;85.62;101076.97;5028549;28;20501;-64
2021/12/23 09:56:42;;;;;;;51.00;27.00;;;;;;;-0.54;86.17;101086.31;5028025;28;20091;-63
2021/12/23 09:59:09;;;;;;;48.67;27.27;;;;;;;-0.49;85.79;101080.84;5027956;28;20498;-63
2021/12/23 10:01:35;;;;;;;49.70;27.27;;;;;;;-0.49;86.34;101067.81;5025111;28;20025;-63
2021/12/23 10:04:00;;;;;;;51.30;27.77;;;;;;;-0.47;86.34;101065.97;5021731;28;20033;-64
2021/12/23 10:06:26;;;;;;;50.80;26.93;;;;;;;-0.46;86.21;101071.09;5028972;28;20033;-63
2021/12/23 10:08:53;;;;;;;50.03;27.77;;;;;;;-0.45;85.98;101064.94;5029491;28;20053;-64
2021/12/23 10:31:20;;;;;;;50.70;27.40;;;;;;;-0.19;86.59;101039.19;5023496;28;20045;-63
2021/12/23 10:37:05;;;;;;;50.30;26.80;;;;;;;-0.14;86.03;101013.72;5028506;28;20095;-63
2021/12/23 10:39:24;;;;;;;49.70;26.90;;;;;;;-0.03;86.39;100996.63;5029710;28;20207;-63
2021/12/23 10:41:49;;;;;;;48.53;26.13;;;;;;;0.01;86.52;100987.72;5025679;28;20033;-64
2021/12/23 10:44:27;;;;;;;48.60;26.83;;;;;;;0.04;86.23;100982.28;5029488;28;20109;-63
2021/12/23 10:46:52;;;;;;;50.07;26.30;;;;;;;0.09;86.34;100980.25;5027655;28;20542;-63
2021/12/23 10:49:31;;;;;;;51.17;27.97;;;;;;;0.09;86.62;100980.25;5030035;28;20033;-63
2021/12/23 10:52:06;;;;;;;48.07;25.50;;;;;;;0.18;86.09;100967.59;5025675;28;20039;-63
2021/12/23 11:00:28;;;;;;;48.93;26.03;;;;;;;0.36;86.00;100965.69;5030260;28;20452;-63
2021/12/23 11:03:16;;;;;;;49.17;26.40;;;;;;;0.39;85.91;100966.34;5027708;28;20053;-63
2021/12/23 11:05:51;;;;;;;48.77;26.17;;;;;;;0.45;86.58;100956.47;5032317;28;20063;-63
2021/12/23 11:27:34;;;;;;;45.97;24.53;;;;;;;0.88;85.92;100919.06;5030363;28;20099;-63
2021/12/23 11:36:01;;;;;;;49.63;24.00;;;;;;;1.12;85.43;100911.44;5028774;28;20406;-63
2021/12/23 11:38:34;;;;;;;44.57;24.73;;;;;;;1.20;85.46;100898.72;5029988;28;20030;-63
2021/12/23 11:41:17;;;;;;;44.57;24.23;;;;;;;1.28;84.69;100892.19;5031158;28;20033;-63
2021/12/23 11:43:49;;;;;;;43.83;24.70;;;;;;;1.35;84.51;100890.84;5031389;28;20041;-63
2021/12/23 11:46:54;;;;;;;43.47;23.83;;;;;;;1.38;84.75;100890.63;5030856;28;20041;-62
2021/12/23 11:49:20;;;;;;;45.57;25.17;;;;;;;1.43;84.46;100878.09;5021846;28;20029;-63
2021/12/23 11:51:53;;;;;;;43.50;23.53;;;;;;;1.46;84.28;100877.91;5030501;28;20059;-63
2021/12/23 11:54:34;;;;;;;45.20;24.33;;;;;;;1.52;84.57;100870.59;5030591;28;20044;-63
2021/12/23 11:57:27;;;;;;;44.07;24.10;;;;;;;1.57;84.53;100868.50;5030957;28;20091;-63
2021/12/23 12:00:31;;;;;;;43.42;23.83;;;;;;;1.55;85.03;100863.41;5030469;28;20399;-64
2021/12/23 12:02:44;;;;;;;42.77;23.20;;;;;;;1.65;84.58;100862.75;5027991;28;20083;-63
2021/12/23 12:05:17;;;;;;;42.57;23.37;;;;;;;1.69;84.10;100852.03;5029279;28;20379;-63
2021/12/23 12:07:44;;;;;;;43.33;24.13;;;;;;;1.77;83.65;100861.13;5031279;28;20021;-63
2021/12/23 12:10:18;;;;;;;42.43;22.93;;;;;;;1.78;84.16;100852.31;5030910;28;20029;-64
2021/12/23 12:13:04;;;;;;;39.40;21.80;;;;;;;1.80;84.23;100860.91;5029121;28;20091;-63
2021/12/23 12:15:38;;;;;;;40.70;22.90;;;;;;;1.86;84.27;100857.88;5029993;28;20033;-62
2021/12/23 12:18:10;;;;;;;43.37;23.87;;;;;;;1.90;84.07;100846.25;5029504;28;20493;-63
2021/12/23 12:20:45;;;;;;;42.90;23.80;;;;;;;1.84;84.39;100824.00;5022669;28;20549;-64